Time;durP1;ratioP1;P1;durP2;ratioP2;P2;SDS_P1;SDS_P2;PMS_P1;PMS_P2;Temp;Humidity;BMP_temperature;BMP_pressure;BME280_temperature;BME280_humidity;BME280_pressure;Samples;Min_cycle;Max_cycle;Signal;HPM_P1;HPM_P2
2024/03/02 00:01:38;;;;;;;35.30;24.08;;;;;;;9.23;100.00;92450.94;5066201;28;20049;-73
2024/03/02 00:04:08;;;;;;;39.38;24.27;;;;;;;9.13;100.00;92441.22;5066448;28;20062;-73
2024/03/02 00:06:36;;;;;;;35.67;24.35;;;;;;;9.08;100.00;92436.75;5062515;28;20062;-73
2024/03/02 00:09:03;;;;;;;36.10;22.88;;;;;;;9.17;100.00;92457.72;5066607;28;20163;-73
2024/03/02 00:11:30;;;;;;;37.33;23.75;;;;;;;9.15;100.00;92449.47;5065324;28;20647;-73
2024/03/02 00:13:57;;;;;;;39.47;25.10;;;;;;;9.16;100.00;92453.59;5064652;28;20162;-73
2024/03/02 00:16:25;;;;;;;38.63;24.63;;;;;;;9.19;100.00;92447.25;5060968;28;20085;-73
2024/03/02 00:18:52;;;;;;;38.20;24.23;;;;;;;9.11;100.00;92435.53;5062066;28;20122;-73
2024/03/02 00:21:22;;;;;;;36.17;22.77;;;;;;;9.18;100.00;92448.25;5059776;28;20041;-73
2024/03/02 00:23:51;;;;;;;38.22;24.35;;;;;;;9.12;100.00;92446.56;5059905;28;20048;-73
2024/03/02 00:26:18;;;;;;;40.05;24.45;;;;;;;9.09;100.00;92447.78;5065664;28;20037;-73
2024/03/02 00:28:46;;;;;;;40.35;25.52;;;;;;;9.00;100.00;92443.97;5066449;28;20157;-73
2024/03/02 00:31:13;;;;;;;35.60;24.38;;;;;;;8.82;100.00;92410.53;5063807;28;20080;-73
2024/03/02 00:33:43;;;;;;;42.60;26.52;;;;;;;9.08;100.00;92436.75;5065086;28;20045;-74
2024/03/02 00:36:11;;;;;;;39.55;25.98;;;;;;;9.01;100.00;92423.25;5058380;28;20040;-73
2024/03/02 00:38:47;;;;;;;41.67;27.58;;;;;;;9.15;100.00;92441.00;5065967;28;21078;-74
2024/03/02 00:41:18;;;;;;;42.63;27.15;;;;;;;9.11;100.00;92432.19;5065700;28;20044;-74
2024/03/02 00:44:01;;;;;;;41.20;26.85;;;;;;;9.11;100.00;92424.50;5063363;28;20048;-73
2024/03/02 00:46:31;;;;;;;43.22;26.25;;;;;;;9.17;100.00;92439.78;5060414;28;20139;-73
2024/03/02 00:49:00;;;;;;;43.58;27.90;;;;;;;8.85;100.00;92406.75;5062290;28;20084;-73
2024/03/02 00:51:28;;;;;;;39.70;26.77;;;;;;;8.77;100.00;92428.31;5061183;28;20900;-74
2024/03/02 00:54:00;;;;;;;51.17;36.47;;;;;;;8.55;100.00;92422.88;5064263;28;20044;-74
2024/03/02 00:56:27;;;;;;;49.38;31.08;;;;;;;8.59;100.00;92434.25;5064867;28;20048;-74
2024/03/02 00:58:54;;;;;;;46.28;31.25;;;;;;;8.65;100.00;92417.22;5064775;28;20055;-73
2024/03/02 01:01:21;;;;;;;47.22;28.27;;;;;;;8.79;100.00;92428.88;5062825;28;20053;-74
2024/03/02 01:03:48;;;;;;;46.28;29.05;;;;;;;8.71;100.00;92428.41;5062557;28;20055;-74
2024/03/02 01:06:16;;;;;;;43.83;28.08;;;;;;;8.60;100.00;92433.25;5064964;28;20057;-73
2024/03/02 01:08:43;;;;;;;47.17;27.77;;;;;;;8.22;100.00;92404.34;5065525;28;20527;-73
2024/03/02 01:11:11;;;;;;;40.80;26.92;;;;;;;8.38;100.00;92427.78;5062864;28;20047;-73
2024/03/02 01:13:38;;;;;;;50.08;32.05;;;;;;;8.27;100.00;92419.03;5059512;28;20080;-73
2024/03/02 01:16:06;;;;;;;49.78;30.52;;;;;;;8.09;100.00;92420.63;5065971;28;20461;-73
2024/03/02 01:18:33;;;;;;;50.30;31.13;;;;;;;8.04;100.00;92420.47;5058759;28;20064;-73
2024/03/02 01:21:01;;;;;;;51.38;32.35;;;;;;;8.09;100.00;92415.50;5061396;28;20482;-73
2024/03/02 01:23:28;;;;;;;50.05;31.63;;;;;;;8.39;100.00;92419.13;5062404;28;20090;-73
2024/03/02 01:25:55;;;;;;;49.28;31.75;;;;;;;8.23;100.00;92412.78;5067062;28;20048;-73
2024/03/02 01:28:23;;;;;;;47.15;30.42;;;;;;;8.25;100.00;92410.81;5065891;28;20049;-73
2024/03/02 01:30:50;;;;;;;45.75;30.05;;;;;;;8.39;100.00;92409.66;5065780;28;20414;-74
2024/03/02 01:33:18;;;;;;;50.97;32.33;;;;;;;8.51;100.00;92406.34;5064345;28;20045;-73
2024/03/02 01:35:45;;;;;;;49.80;29.42;;;;;;;8.51;100.00;92394.34;5068380;28;20040;-74
2024/03/02 01:38:12;;;;;;;43.15;29.30;;;;;;;8.69;100.00;92403.00;5068960;28;20221;-74
2024/03/02 01:40:40;;;;;;;45.55;30.25;;;;;;;8.72;100.00;92401.78;5065334;28;20493;-74
2024/03/02 01:43:07;;;;;;;49.80;31.05;;;;;;;8.79;100.00;92398.16;5063463;28;20045;-74
2024/03/02 01:45:37;;;;;;;46.58;29.42;;;;;;;8.86;100.00;92408.31;5064180;28;20135;-74
2024/03/02 01:48:05;;;;;;;47.35;28.52;;;;;;;8.78;100.00;92411.16;5061828;28;20096;-74
2024/03/02 01:50:33;;;;;;;48.25;29.55;;;;;;;8.58;100.00;92399.41;5066777;28;20607;-74
2024/03/02 01:53:01;;;;;;;45.63;29.15;;;;;;;8.69;100.00;92401.25;5067671;28;20402;-74
2024/03/02 01:55:29;;;;;;;47.58;29.73;;;;;;;8.80;100.00;92404.06;5063987;28;20048;-74
2024/03/02 01:57:57;;;;;;;46.97;30.10;;;;;;;8.76;100.00;92382.44;5067809;28;20501;-74
2024/03/02 02:00:26;;;;;;;46.67;29.05;;;;;;;8.90;100.00;92400.97;5062546;28;20107;-73
2024/03/02 02:02:54;;;;;;;50.13;29.55;;;;;;;8.58;100.00;92337.19;5067542;28;20123;-73
2024/03/02 02:05:22;;;;;;;49.22;30.80;;;;;;;9.05;100.00;92393.66;5068015;28;20129;-73
2024/03/02 02:07:48;;;;;;;49.92;30.23;;;;;;;9.08;100.00;92400.88;5067743;28;20062;-73
2024/03/02 02:10:16;;;;;;;50.28;30.77;;;;;;;8.98;100.00;92380.13;5062533;28;20048;-73
2024/03/02 02:12:43;;;;;;;46.00;27.75;;;;;;;9.03;100.00;92405.13;5063695;28;20530;-74
2024/03/02 02:15:29;;;;;;;48.22;29.40;;;;;;;9.05;100.00;92403.09;5068083;28;20513;-74
2024/03/02 02:17:58;;;;;;;45.00;27.85;;;;;;;8.99;100.00;92401.44;5067197;28;20048;-74
2024/03/02 02:20:25;;;;;;;45.88;27.83;;;;;;;8.48;100.00;92376.84;5064257;28;20041;-73
2024/03/02 02:22:58;;;;;;;44.40;27.15;;;;;;;8.56;100.00;92386.03;5064508;28;20056;-74
2024/03/02 02:25:25;;;;;;;42.72;27.63;;;;;;;8.27;100.00;92380.66;5063969;28;20123;-74
2024/03/02 02:27:52;;;;;;;42.72;27.77;;;;;;;8.43;100.00;92397.22;5067967;28;20044;-73
2024/03/02 02:30:23;;;;;;;49.65;30.65;;;;;;;8.39;100.00;92376.38;5063653;28;20055;-73
2024/03/02 02:32:50;;;;;;;47.63;28.88;;;;;;;8.62;100.00;92398.00;5065172;28;20558;-73
2024/03/02 02:35:17;;;;;;;45.67;30.33;;;;;;;8.63;100.00;92386.75;5068115;28;20044;-73
2024/03/02 02:37:45;;;;;;;46.95;27.75;;;;;;;8.77;100.00;92396.81;5067690;28;20049;-73
2024/03/02 02:40:14;;;;;;;48.25;29.40;;;;;;;8.79;100.00;92382.78;5063958;28;20840;-73
2024/03/02 02:42:41;;;;;;;49.03;29.13;;;;;;;8.86;100.00;92395.50;5067058;28;20049;-73
2024/03/02 02:45:08;;;;;;;47.83;28.25;;;;;;;8.89;100.00;92394.28;5067661;28;20040;-73
2024/03/02 02:47:36;;;;;;;44.55;29.38;;;;;;;8.97;100.00;92406.00;5066732;28;20510;-74
2024/03/02 02:50:04;;;;;;;48.20;28.55;;;;;;;9.01;100.00;92405.31;5062533;28;20060;-74
2024/03/02 02:52:35;;;;;;;47.42;29.08;;;;;;;9.06;100.00;92397.78;5060015;28;20387;-73
2024/03/02 02:55:04;;;;;;;45.13;28.77;;;;;;;9.03;100.00;92393.06;5063193;28;20040;-74
2024/03/02 02:57:35;;;;;;;46.50;28.15;;;;;;;8.86;100.00;92366.53;5066431;28;20131;-73
2024/03/02 03:00:09;;;;;;;45.53;30.05;;;;;;;9.07;100.00;92401.09;5063182;28;20048;-73
2024/03/02 03:02:38;;;;;;;44.88;28.75;;;;;;;9.08;100.00;92400.88;5064890;28;20494;-73
2024/03/02 03:05:06;;;;;;;48.70;32.55;;;;;;;9.03;100.00;92387.19;5056145;28;20048;-73
2024/03/02 03:07:34;;;;;;;45.45;30.20;;;;;;;9.08;100.00;92403.44;5060644;28;20525;-74
2024/03/02 03:10:01;;;;;;;46.42;30.20;;;;;;;9.12;100.00;92395.31;5065934;28;20053;-73
2024/03/02 03:12:28;;;;;;;43.95;28.65;;;;;;;9.01;100.00;92384.84;5061335;28;20179;-74
2024/03/02 03:14:57;;;;;;;47.78;30.38;;;;;;;9.09;100.00;92401.66;5064112;28;20072;-75
2024/03/02 03:17:24;;;;;;;40.70;28.00;;;;;;;9.06;100.00;92402.09;5062284;28;20048;-75
2024/03/02 03:19:51;;;;;;;59.95;37.30;;;;;;;9.10;100.00;92405.78;5064190;28;20156;-74
2024/03/02 03:22:18;;;;;;;66.10;44.97;;;;;;;9.12;100.00;92398.66;5059872;28;20464;-75
2024/03/02 03:24:45;;;;;;;79.38;53.80;;;;;;;9.07;100.00;92396.75;5060510;28;20041;-75
2024/03/02 03:27:12;;;;;;;75.88;47.00;;;;;;;9.02;100.00;92398.44;5065697;28;20044;-75
2024/03/02 03:29:39;;;;;;;67.05;41.58;;;;;;;8.79;100.00;92394.78;5062755;28;20102;-75
2024/03/02 03:32:08;;;;;;;58.17;37.28;;;;;;;8.83;100.00;92390.81;5059335;28;20064;-75
2024/03/02 03:34:35;;;;;;;61.72;38.08;;;;;;;8.73;100.00;92393.09;5063828;28;20057;-75
2024/03/02 03:37:02;;;;;;;58.30;38.30;;;;;;;8.76;100.00;92388.34;5066085;28;20051;-75
2024/03/02 03:39:29;;;;;;;65.97;42.08;;;;;;;8.84;100.00;92387.22;5060022;28;20127;-76
2024/03/02 03:41:56;;;;;;;60.85;39.15;;;;;;;8.78;100.00;92386.34;5060482;28;20040;-75
2024/03/02 03:44:24;;;;;;;59.42;38.95;;;;;;;8.85;100.00;92383.69;5061454;28;20052;-75
2024/03/02 03:46:51;;;;;;;54.63;35.05;;;;;;;8.94;100.00;92397.72;5065395;28;20059;-75
2024/03/02 03:49:19;;;;;;;48.15;30.88;;;;;;;8.93;100.00;92393.63;5061464;28;20048;-75
2024/03/02 03:51:46;;;;;;;47.60;29.10;;;;;;;8.76;100.00;92390.91;5061945;28;20048;-75
2024/03/02 03:54:13;;;;;;;46.15;29.60;;;;;;;8.74;100.00;92389.56;5065552;28;20591;-74
2024/03/02 03:56:40;;;;;;;47.72;30.00;;;;;;;8.75;100.00;92394.44;5063104;28;20817;-74
2024/03/02 03:59:07;;;;;;;51.13;29.25;;;;;;;8.64;100.00;92377.28;5062214;28;20044;-75
2024/03/02 04:01:34;;;;;;;47.47;29.13;;;;;;;8.71;100.00;92392.56;5059962;28;20052;-75
2024/03/02 04:04:03;;;;;;;48.17;29.30;;;;;;;8.67;100.00;92380.19;5065782;28;20063;-75
2024/03/02 04:06:31;;;;;;;49.75;30.80;;;;;;;8.81;100.00;92398.69;5063721;28;20080;-75
2024/03/02 04:08:58;;;;;;;48.97;30.60;;;;;;;8.86;100.00;92395.50;5060526;28;20052;-74
2024/03/02 04:11:25;;;;;;;47.50;30.65;;;;;;;8.90;100.00;92399.19;5061462;28;20384;-75
2024/03/02 04:13:52;;;;;;;48.28;31.05;;;;;;;8.95;100.00;92391.59;5064441;28;20645;-76
2024/03/02 04:16:19;;;;;;;49.60;31.65;;;;;;;9.00;100.00;92403.78;5061521;28;20127;-75
2024/03/02 04:18:46;;;;;;;44.70;29.08;;;;;;;8.97;100.00;92391.38;5065077;28;20049;-75
2024/03/02 04:21:13;;;;;;;47.17;30.02;;;;;;;9.02;100.00;92401.00;5057650;28;20048;-76
2024/03/02 04:23:41;;;;;;;49.30;31.40;;;;;;;9.06;100.00;92396.97;5062654;28;20517;-76
2024/03/02 04:26:08;;;;;;;50.35;34.45;;;;;;;9.06;100.00;92402.09;5060597;28;20055;-76
2024/03/02 04:28:35;;;;;;;46.10;30.48;;;;;;;9.08;100.00;92400.13;5063646;28;20167;-76
2024/03/02 04:31:02;;;;;;;42.08;28.13;;;;;;;9.09;100.00;92401.66;5065286;28;20059;-76
2024/03/02 04:33:29;;;;;;;46.00;30.02;;;;;;;9.06;100.00;92399.53;5062126;28;20051;-75
2024/03/02 04:35:57;;;;;;;47.33;31.38;;;;;;;8.95;100.00;92401.84;5065580;28;20054;-76
2024/03/02 04:38:24;;;;;;;43.92;29.08;;;;;;;8.85;100.00;92401.63;5064281;28;20041;-76
2024/03/02 04:40:52;;;;;;;41.75;27.38;;;;;;;8.75;100.00;92396.25;5059439;28;20571;-76
2024/03/02 04:43:19;;;;;;;41.80;26.60;;;;;;;8.62;100.00;92399.75;5062648;28;20064;-75
2024/03/02 04:45:47;;;;;;;41.65;26.25;;;;;;;8.37;100.00;92400.63;5065581;28;21189;-74
2024/03/02 04:48:14;;;;;;;44.65;27.92;;;;;;;8.19;100.00;92402.22;5061250;28;20056;-73
2024/03/02 04:50:41;;;;;;;42.40;28.52;;;;;;;7.89;100.00;92397.81;5064217;28;20049;-73
2024/03/02 04:53:08;;;;;;;47.53;28.55;;;;;;;7.81;100.00;92405.75;5058301;28;20052;-73
2024/03/02 04:56:19;;;;;;;47.75;29.17;;;;;;;7.59;100.00;92395.97;5063889;28;20052;-74
2024/03/02 04:58:47;;;;;;;47.17;28.77;;;;;;;7.48;100.00;92403.31;5065839;28;20094;-73
2024/03/02 05:01:13;;;;;;;50.08;30.25;;;;;;;7.41;100.00;92399.25;5065548;28;20413;-73
2024/03/02 05:03:40;;;;;;;52.28;31.75;;;;;;;7.37;100.00;92396.34;5069103;28;20051;-73
2024/03/02 05:06:08;;;;;;;50.25;31.88;;;;;;;7.59;100.00;92398.53;5067141;28;20497;-73
2024/03/02 05:08:35;;;;;;;54.20;34.72;;;;;;;7.74;100.00;92408.41;5068699;28;20993;-74
2024/03/02 05:11:29;;;;;;;53.53;32.08;;;;;;;7.56;100.00;92409.16;5067604;28;20048;-74
2024/03/02 05:13:50;;;;;;;53.28;33.70;;;;;;;7.68;100.00;92407.47;5068156;28;20395;-74
2024/03/02 05:16:17;;;;;;;57.13;32.70;;;;;;;7.77;100.00;92412.31;5069000;28;20090;-74
2024/03/02 05:18:44;;;;;;;60.42;37.50;;;;;;;7.77;100.00;92400.28;5068533;28;20056;-74
2024/03/02 05:21:11;;;;;;;59.08;34.67;;;;;;;8.09;100.00;92418.06;5060373;28;20051;-74
2024/03/02 05:23:38;;;;;;;58.28;36.40;;;;;;;8.19;100.00;92416.78;5067147;28;20549;-75
2024/03/02 05:26:06;;;;;;;54.92;34.40;;;;;;;8.22;100.00;92412.03;5067590;28;20040;-75
2024/03/02 05:28:33;;;;;;;55.17;35.83;;;;;;;8.35;100.00;92421.31;5063853;28;20163;-75
2024/03/02 05:31:01;;;;;;;56.22;40.33;;;;;;;8.40;100.00;92418.13;5067809;28;20048;-75
2024/03/02 05:33:29;;;;;;;121.28;46.72;;;;;;;8.23;100.00;92394.88;5068525;28;20437;-75
2024/03/02 05:35:56;;;;;;;52.65;32.35;;;;;;;8.29;100.00;92420.41;5063990;28;20426;-75
2024/03/02 05:38:23;;;;;;;50.50;32.60;;;;;;;8.35;100.00;92420.53;5066967;28;20049;-75
2024/03/02 05:40:51;;;;;;;46.95;29.75;;;;;;;8.29;100.00;92411.97;5065062;28;20116;-75
2024/03/02 05:43:18;;;;;;;51.10;31.27;;;;;;;8.45;100.00;92430.25;5067191;28;20451;-75
2024/03/02 05:45:45;;;;;;;47.00;30.67;;;;;;;8.45;100.00;92425.94;5066165;28;20149;-75
2024/03/02 05:48:13;;;;;;;49.58;29.85;;;;;;;8.37;100.00;92405.72;5068010;28;20053;-75
2024/03/02 05:50:40;;;;;;;48.63;31.15;;;;;;;8.66;100.00;92439.31;5063190;28;20048;-76
2024/03/02 05:53:07;;;;;;;48.17;30.35;;;;;;;8.73;100.00;92434.06;5064757;28;20051;-75
2024/03/02 05:55:34;;;;;;;46.30;31.25;;;;;;;8.72;100.00;92437.63;5066199;28;20048;-75
2024/03/02 05:58:17;;;;;;;43.92;29.25;;;;;;;8.80;100.00;92435.56;5065854;28;20132;-75
2024/03/02 06:00:44;;;;;;;49.55;29.23;;;;;;;8.87;100.00;92440.59;5064356;28;20102;-75
2024/03/02 06:03:11;;;;;;;45.20;30.00;;;;;;;8.77;100.00;92428.31;5065963;28;20048;-75
2024/03/02 06:05:40;;;;;;;45.15;29.70;;;;;;;8.93;100.00;92437.16;5059343;28;20044;-75
2024/03/02 06:08:08;;;;;;;46.28;30.65;;;;;;;8.96;100.00;92441.06;5063271;28;20165;-75
2024/03/02 06:10:35;;;;;;;48.25;30.50;;;;;;;9.04;100.00;92447.66;5063870;28;20067;-74
2024/03/02 06:13:01;;;;;;;50.83;31.20;;;;;;;9.11;100.00;92440.66;5053489;28;20049;-74
2024/03/02 06:15:28;;;;;;;46.75;31.02;;;;;;;9.15;100.00;92448.69;5056485;28;20048;-75
2024/03/02 06:17:55;;;;;;;47.80;31.08;;;;;;;9.20;100.00;92448.81;5058902;28;20056;-74
2024/03/02 06:20:22;;;;;;;48.08;30.75;;;;;;;9.25;100.00;92445.59;5054721;28;20041;-75
2024/03/02 06:22:50;;;;;;;45.03;31.33;;;;;;;9.29;100.00;92444.94;5051423;28;20051;-75
2024/03/02 06:25:17;;;;;;;48.88;31.92;;;;;;;9.32;100.00;92447.06;5049745;28;20041;-75
2024/03/02 06:27:44;;;;;;;47.92;31.70;;;;;;;9.33;100.00;92445.28;5049418;28;20063;-75
2024/03/02 06:30:11;;;;;;;50.67;31.70;;;;;;;9.29;100.00;92439.81;5050123;28;20064;-75
2024/03/02 06:32:38;;;;;;;47.42;30.40;;;;;;;9.39;100.00;92446.94;5057672;28;20051;-75
2024/03/02 06:35:09;;;;;;;48.60;30.55;;;;;;;9.47;100.00;92450.97;5052931;28;20041;-75
2024/03/02 06:37:36;;;;;;;50.08;29.83;;;;;;;9.50;100.00;92447.97;5049865;28;20414;-75
2024/03/02 06:40:07;;;;;;;44.97;29.42;;;;;;;9.56;100.00;92453.97;5059324;28;20051;-75
2024/03/02 06:42:34;;;;;;;42.47;26.88;;;;;;;9.49;100.00;92436.94;5050270;28;20048;-75
2024/03/02 06:45:01;;;;;;;43.22;28.13;;;;;;;9.62;100.00;92453.88;5053639;28;20419;-75
2024/03/02 06:47:28;;;;;;;42.50;26.40;;;;;;;9.65;100.00;92457.00;5050812;28;20049;-75
2024/03/02 06:49:55;;;;;;;42.22;27.17;;;;;;;9.68;100.00;92457.34;5050236;28;20490;-75
2024/03/02 06:52:22;;;;;;;40.15;25.83;;;;;;;9.67;100.00;92463.47;5057892;28;20044;-75
2024/03/02 06:54:49;;;;;;;36.60;24.65;;;;;;;9.68;100.00;92459.13;5054501;28;20051;-75
2024/03/02 06:57:19;;;;;;;33.15;23.23;;;;;;;9.74;100.00;92465.94;5054654;28;20079;-75
2024/03/02 06:59:46;;;;;;;36.42;21.92;;;;;;;9.72;100.00;92465.38;5051939;28;20045;-75
2024/03/02 07:02:13;;;;;;;29.50;19.90;;;;;;;9.65;100.00;92470.63;5052532;28;20056;-75
2024/03/02 07:04:40;;;;;;;32.85;22.13;;;;;;;9.49;100.00;92466.91;5054153;28;20055;-75
2024/03/02 07:07:07;;;;;;;30.58;20.50;;;;;;;9.33;100.00;92471.69;5051336;28;20045;-75
2024/03/02 07:09:34;;;;;;;39.65;30.25;;;;;;;9.41;100.00;92462.91;5063467;28;20806;-75
2024/03/02 07:12:01;;;;;;;40.58;27.33;;;;;;;9.53;100.00;92470.59;5048688;28;20053;-75
2024/03/02 07:17:10;;;;;;;34.42;23.90;;;;;;;9.36;100.00;92434.59;5050431;28;20033;-74
2024/03/02 07:19:39;;;;;;;32.50;24.13;;;;;;;9.69;100.00;92479.44;5051538;28;20079;-75
2024/03/02 07:22:09;;;;;;;30.60;21.42;;;;;;;9.65;100.00;92452.66;5052554;28;20047;-75
2024/03/02 07:24:41;;;;;;;29.17;19.60;;;;;;;9.72;100.00;92480.78;5053450;28;20053;-75
2024/03/02 07:27:08;;;;;;;30.33;19.60;;;;;;;9.68;100.00;92467.59;5056709;28;20114;-75
2024/03/02 07:29:37;;;;;;;26.13;19.48;;;;;;;9.73;100.00;92475.41;5058519;28;20056;-75
2024/03/02 07:32:04;;;;;;;24.20;18.27;;;;;;;9.72;100.00;92470.50;5057535;28;20045;-75
2024/03/02 07:34:32;;;;;;;23.52;16.35;;;;;;;9.67;100.00;92473.72;5049319;28;20044;-75
2024/03/02 07:36:59;;;;;;;26.05;18.27;;;;;;;9.62;100.00;92471.84;5056364;28;20056;-75
2024/03/02 07:39:26;;;;;;;27.70;18.30;;;;;;;9.65;100.00;92480.88;5054837;28;20049;-75
2024/03/02 07:41:53;;;;;;;25.73;17.88;;;;;;;9.66;100.00;92472.16;5059000;28;20044;-75
2024/03/02 07:44:21;;;;;;;25.10;18.00;;;;;;;9.68;100.00;92484.78;5050793;28;20045;-75
2024/03/02 07:46:50;;;;;;;28.30;19.67;;;;;;;9.66;100.00;92490.13;5050006;28;20047;-75
2024/03/02 07:49:17;;;;;;;26.48;17.45;;;;;;;9.46;100.00;92475.03;5049727;28;20052;-74
2024/03/02 07:51:45;;;;;;;26.27;17.27;;;;;;;9.53;100.00;92478.28;5052547;28;20054;-75
2024/03/02 07:54:12;;;;;;;27.13;18.20;;;;;;;9.56;100.00;92489.88;5056619;28;20056;-75
2024/03/02 07:56:39;;;;;;;30.92;20.52;;;;;;;9.51;100.00;92487.19;5050812;28;20410;-75
2024/03/02 07:59:07;;;;;;;28.42;18.85;;;;;;;9.54;100.00;92490.09;5051449;28;20446;-74
2024/03/02 08:01:34;;;;;;;26.08;17.80;;;;;;;9.60;100.00;92496.94;5049631;28;20049;-74
2024/03/02 08:04:04;;;;;;;28.33;18.80;;;;;;;9.16;100.00;92494.59;5047919;28;20590;-75
2024/03/02 08:06:31;;;;;;;26.75;18.90;;;;;;;8.84;100.00;92494.03;5051295;28;20051;-75
2024/03/02 08:09:00;;;;;;;28.48;20.08;;;;;;;9.25;100.00;92496.84;5062673;28;20128;-74
2024/03/02 08:11:28;;;;;;;25.67;17.35;;;;;;;9.38;100.00;92495.84;5049935;28;20059;-75
2024/03/02 08:13:55;;;;;;;27.35;17.45;;;;;;;9.47;100.00;92502.25;5047499;28;20045;-75
2024/03/02 08:16:25;;;;;;;28.55;20.42;;;;;;;9.61;100.00;92502.81;5050755;28;20049;-75
2024/03/02 08:18:52;;;;;;;28.05;19.08;;;;;;;9.62;100.00;92504.38;5054257;28;20048;-75
2024/03/02 08:21:21;;;;;;;27.77;19.92;;;;;;;9.74;100.00;92506.97;5047710;28;20045;-75
2024/03/02 08:23:48;;;;;;;26.35;18.75;;;;;;;9.82;100.00;92503.31;5051056;28;20059;-75
2024/03/02 08:26:15;;;;;;;24.30;16.33;;;;;;;9.87;100.00;92493.91;5048840;28;20128;-75
2024/03/02 08:28:42;;;;;;;23.63;16.38;;;;;;;9.94;100.00;92509.22;5050020;28;20525;-75
2024/03/02 08:31:10;;;;;;;26.70;17.50;;;;;;;10.05;100.00;92506.88;5049547;28;20480;-75
2024/03/02 08:33:37;;;;;;;25.25;15.95;;;;;;;10.08;100.00;92514.09;5053116;28;20055;-75
2024/03/02 08:36:04;;;;;;;25.65;17.45;;;;;;;10.20;100.00;92511.56;5052513;28;20048;-75
2024/03/02 08:38:33;;;;;;;25.65;17.90;;;;;;;10.22;100.00;92512.09;5053215;28;20049;-75
2024/03/02 08:41:00;;;;;;;27.77;20.17;;;;;;;9.84;100.00;92506.41;5055233;28;20049;-75
2024/03/02 08:43:27;;;;;;;42.72;30.42;;;;;;;9.73;100.00;92501.03;5052606;28;20052;-75
2024/03/02 08:45:54;;;;;;;28.77;20.70;;;;;;;9.68;100.00;92505.28;5052829;28;20059;-75
2024/03/02 08:48:21;;;;;;;26.70;18.98;;;;;;;9.75;100.00;92504.19;5051895;28;20045;-75
2024/03/02 08:50:48;;;;;;;25.05;18.40;;;;;;;9.91;100.00;92504.53;5053057;28;20714;-75
2024/03/02 08:53:18;;;;;;;24.98;18.35;;;;;;;9.82;100.00;92505.88;5054834;28;20199;-75
2024/03/02 08:55:46;;;;;;;25.08;18.63;;;;;;;10.03;100.00;92504.53;5053035;28;20053;-75
2024/03/02 08:58:13;;;;;;;22.85;17.02;;;;;;;9.76;100.00;92510.88;5049633;28;20055;-75
2024/03/02 09:00:41;;;;;;;19.70;14.50;;;;;;;9.26;100.00;92514.56;5054649;28;20062;-75
2024/03/02 09:03:08;;;;;;;24.92;16.17;;;;;;;9.59;100.00;92517.66;5052275;28;20045;-75
2024/03/02 09:05:35;;;;;;;22.63;15.52;;;;;;;9.48;100.00;92478.16;5060132;28;20053;-75
2024/03/02 09:08:03;;;;;;;27.05;18.23;;;;;;;9.74;100.00;92517.22;5051912;28;20052;-75
2024/03/02 09:10:30;;;;;;;26.83;18.45;;;;;;;9.75;100.00;92521.34;5063945;28;20557;-75
2024/03/02 09:12:59;;;;;;;25.20;17.95;;;;;;;9.85;100.00;92523.34;5050664;28;20055;-75
2024/03/02 09:15:27;;;;;;;25.25;18.10;;;;;;;9.96;100.00;92529.53;5055885;28;20044;-75
2024/03/02 09:17:54;;;;;;;24.98;17.70;;;;;;;10.03;100.00;92535.31;5051363;28;20136;-76
2024/03/02 09:20:23;;;;;;;30.65;19.00;;;;;;;9.94;100.00;92534.88;5051159;28;20045;-75
2024/03/02 09:22:50;;;;;;;29.60;18.05;;;;;;;9.86;100.00;92530.06;5050251;28;20041;-75
2024/03/02 09:25:17;;;;;;;26.60;17.85;;;;;;;9.96;100.00;92537.97;5052042;28;20057;-76
2024/03/02 09:27:44;;;;;;;26.92;19.35;;;;;;;10.11;100.00;92541.91;5051351;28;20256;-75
2024/03/02 09:30:14;;;;;;;84.78;48.38;;;;;;;10.26;100.00;92541.44;5053693;28;20140;-76
2024/03/02 09:32:42;;;;;;;30.70;20.33;;;;;;;10.21;100.00;92531.88;5055140;28;20056;-76
2024/03/02 09:35:09;;;;;;;32.35;20.27;;;;;;;10.26;100.00;92539.69;5053458;28;20087;-76
2024/03/02 09:37:36;;;;;;;32.10;20.17;;;;;;;10.40;100.00;92555.63;5056612;28;20056;-76
2024/03/02 09:40:03;;;;;;;31.15;21.13;;;;;;;10.36;100.00;92541.66;5052847;28;20053;-76
2024/03/02 09:42:32;;;;;;;26.20;18.30;;;;;;;10.33;100.00;92547.28;5053337;28;20700;-76
2024/03/02 09:44:59;;;;;;;24.85;18.00;;;;;;;9.94;100.00;92550.25;5049186;28;20491;-76
2024/03/02 09:47:27;;;;;;;21.45;16.17;;;;;;;10.09;100.00;92541.34;5051392;28;20128;-75
2024/03/02 09:49:55;;;;;;;23.90;17.88;;;;;;;9.90;100.00;92541.44;5050693;28;20049;-75
2024/03/02 09:52:23;;;;;;;21.70;16.00;;;;;;;9.87;100.00;92542.66;5057354;28;20041;-75
2024/03/02 09:54:50;;;;;;;22.65;16.55;;;;;;;9.97;100.00;92531.88;5050934;28;20053;-75
2024/03/02 09:57:17;;;;;;;22.98;15.90;;;;;;;10.14;100.00;92544.03;5059435;28;20055;-75
2024/03/02 09:59:45;;;;;;;23.98;17.00;;;;;;;10.30;100.00;92542.56;5059067;28;20503;-74
2024/03/02 10:02:12;;;;;;;24.98;17.33;;;;;;;10.42;100.00;92547.72;5057368;28;20138;-74
2024/03/02 10:04:40;;;;;;;24.73;16.83;;;;;;;10.48;100.00;92543.47;5049363;28;20055;-74
2024/03/02 10:07:14;;;;;;;18.42;13.80;;;;;;;10.38;100.00;92547.34;5054657;28;20080;-74
2024/03/02 10:09:41;;;;;;;19.00;12.95;;;;;;;10.24;100.00;92518.56;5053463;28;20067;-75
2024/03/02 10:12:10;;;;;;;24.60;15.35;;;;;;;10.46;100.00;92546.25;5050365;28;20049;-75
2024/03/02 10:14:37;;;;;;;22.23;14.55;;;;;;;9.93;100.00;92527.38;5050389;28;20077;-74
2024/03/02 10:17:05;;;;;;;21.58;14.80;;;;;;;10.23;100.00;92537.53;5054094;28;20062;-75
2024/03/02 10:19:34;;;;;;;17.27;12.63;;;;;;;10.15;100.00;92538.66;5053469;28;20130;-74
2024/03/02 10:22:05;;;;;;;14.55;10.80;;;;;;;9.84;100.00;92538.00;5051445;28;20080;-75
2024/03/02 10:24:44;;;;;;;16.38;11.05;;;;;;;9.91;100.00;92539.66;5061334;28;20045;-74
2024/03/02 10:27:12;;;;;;;15.93;11.05;;;;;;;9.93;100.00;92535.88;5053431;28;20045;-75
2024/03/02 10:29:41;;;;;;;14.50;10.52;;;;;;;9.92;100.00;92533.53;5052604;28;20131;-75
2024/03/02 10:32:12;;;;;;;16.30;11.48;;;;;;;9.43;100.00;92526.75;5050617;28;20091;-75
2024/03/02 10:34:41;;;;;;;13.63;10.60;;;;;;;9.47;100.00;92545.81;5052881;28;20048;-75
2024/03/02 10:37:09;;;;;;;17.13;11.75;;;;;;;9.57;100.00;92535.81;5048291;28;20056;-75
2024/03/02 10:39:37;;;;;;;15.80;11.35;;;;;;;9.59;100.00;92527.91;5051513;28;20051;-75
2024/03/02 10:42:06;;;;;;;18.00;12.15;;;;;;;9.81;100.00;92535.09;5056733;28;20041;-75
2024/03/02 10:44:34;;;;;;;16.00;11.07;;;;;;;9.49;100.00;92524.09;5048986;28;20110;-75
2024/03/02 10:47:03;;;;;;;17.92;11.93;;;;;;;9.13;100.00;92514.75;5050964;28;20048;-75
2024/03/02 10:49:31;;;;;;;17.63;11.85;;;;;;;9.43;100.00;92531.88;5050379;28;20047;-75
2024/03/02 10:51:58;;;;;;;16.85;11.77;;;;;;;9.34;100.00;92527.06;5053413;28;20061;-75
2024/03/02 10:54:28;;;;;;;21.02;13.23;;;;;;;9.42;100.00;92527.75;5057789;28;20048;-75
2024/03/02 10:56:59;;;;;;;17.17;12.65;;;;;;;9.59;100.00;92523.56;5049665;28;20053;-75
2024/03/02 10:59:30;;;;;;;17.45;11.82;;;;;;;9.20;100.00;92515.44;5051629;28;20053;-75
2024/03/02 11:01:59;;;;;;;17.83;12.35;;;;;;;9.25;100.00;92525.03;5053745;28;20127;-75
2024/03/02 11:04:28;;;;;;;19.25;13.13;;;;;;;9.41;100.00;92508.25;5049036;28;20072;-76
2024/03/02 11:07:00;;;;;;;20.40;15.40;;;;;;;9.27;100.00;92518.69;5054552;28;20040;-75
2024/03/02 11:09:30;;;;;;;22.35;14.48;;;;;;;9.11;100.00;92511.63;5051770;28;20142;-75
2024/03/02 11:12:04;;;;;;;25.85;16.58;;;;;;;9.34;100.00;92521.16;5050433;28;20053;-75
2024/03/02 11:14:33;;;;;;;22.75;15.23;;;;;;;8.99;100.00;92514.13;5049209;28;20055;-75
2024/03/02 11:17:03;;;;;;;22.42;15.77;;;;;;;9.35;100.00;92517.59;5048206;28;20060;-75
2024/03/02 11:19:31;;;;;;;25.00;16.15;;;;;;;9.34;100.00;92516.03;5057421;28;20053;-75
2024/03/02 11:21:58;;;;;;;26.38;16.40;;;;;;;9.40;100.00;92514.38;5053684;28;20048;-75
2024/03/02 11:24:53;;;;;;;25.25;14.88;;;;;;;9.61;100.00;92511.31;5051070;28;20059;-75